Time;durP1;ratioP1;P1;durP2;ratioP2;P2;SDS_P1;SDS_P2;PMS_P1;PMS_P2;Temp;Humidity;BMP_temperature;BMP_pressure;BME280_temperature;BME280_humidity;BME280_pressure;Samples;Min_cycle;Max_cycle;Signal;HPM_P1;HPM_P2
2023/12/17 00:01:51;;;;;;;19.85;12.95;;;;;;;;;;4859221;29;20208;-84
2023/12/17 00:04:17;;;;;;;20.83;12.02;;;;;;;;;;4875487;29;20652;-84
2023/12/17 00:06:58;;;;;;;20.48;12.43;;;;;;;;;;4914562;28;20032;-84
2023/12/17 00:09:23;;;;;;;21.83;12.65;;;;;;;;;;4996927;28;20084;-85
2023/12/17 00:11:58;;;;;;;17.98;11.95;;;;;;;;;;5008550;28;20064;-84
2023/12/17 00:14:23;;;;;;;20.42;11.75;;;;;;;;;;5000010;28;20545;-85
2023/12/17 00:16:49;;;;;;;21.88;12.25;;;;;;;;;;4999567;28;20032;-85
2023/12/17 00:19:14;;;;;;;18.45;11.80;;;;;;;;;;4982273;28;20073;-86
2023/12/17 00:21:40;;;;;;;20.65;12.23;;;;;;;;;;5007555;28;20041;-86
2023/12/17 00:24:05;;;;;;;20.58;12.63;;;;;;;;;;5006114;28;20057;-85
2023/12/17 00:26:31;;;;;;;20.52;11.30;;;;;;;;;;5013688;28;20045;-85
2023/12/17 00:29:00;;;;;;;19.67;11.95;;;;;;;;;;5006986;28;20034;-84
2023/12/17 00:31:28;;;;;;;21.25;12.90;;;;;;;;;;5001815;28;20191;-83
2023/12/17 00:33:54;;;;;;;19.35;11.55;;;;;;;;;;5016246;28;20057;-86
2023/12/17 00:36:19;;;;;;;17.50;11.10;;;;;;;;;;5006685;28;20946;-85
2023/12/17 00:38:45;;;;;;;17.85;12.18;;;;;;;;;;5006440;28;20087;-85
2023/12/17 00:41:18;;;;;;;19.08;11.82;;;;;;;;;;5007373;28;20520;-84
2023/12/17 00:43:55;;;;;;;19.05;11.95;;;;;;;;;;5011968;28;20078;-86
2023/12/17 00:46:20;;;;;;;18.52;11.98;;;;;;;;;;5000363;28;20040;-83
2023/12/17 00:48:46;;;;;;;19.33;11.82;;;;;;;;;;5024626;28;20487;-86
2023/12/17 00:51:17;;;;;;;19.83;11.85;;;;;;;;;;5007691;28;20530;-86
2023/12/17 00:53:42;;;;;;;19.42;12.10;;;;;;;;;;5023114;28;20041;-85
2023/12/17 00:56:11;;;;;;;19.45;11.27;;;;;;;;;;4999130;28;20040;-86
2023/12/17 00:58:36;;;;;;;23.23;12.68;;;;;;;;;;5023523;28;20041;-86
2023/12/17 01:01:02;;;;;;;18.00;11.55;;;;;;;;;;5008189;28;20411;-85
2023/12/17 01:03:28;;;;;;;20.80;12.00;;;;;;;;;;5005576;28;20577;-85
2023/12/17 01:05:53;;;;;;;19.30;12.10;;;;;;;;;;4997481;28;20065;-85
2023/12/17 01:08:22;;;;;;;19.40;12.05;;;;;;;;;;5006366;28;20120;-85
2023/12/17 01:10:50;;;;;;;20.65;12.20;;;;;;;;;;4999188;28;20041;-83
2023/12/17 01:13:15;;;;;;;15.95;11.57;;;;;;;;;;5005282;28;20127;-85
2023/12/17 01:15:41;;;;;;;18.60;11.43;;;;;;;;;;5005664;28;20041;-85
2023/12/17 01:18:07;;;;;;;17.25;10.90;;;;;;;;;;5022890;28;20056;-85
2023/12/17 01:20:33;;;;;;;19.02;11.75;;;;;;;;;;4996079;28;20128;-84
2023/12/17 01:22:58;;;;;;;17.77;11.32;;;;;;;;;;5006880;28;20163;-85
2023/12/17 01:25:23;;;;;;;18.15;11.27;;;;;;;;;;5006784;28;20435;-85
2023/12/17 01:27:51;;;;;;;18.83;11.40;;;;;;;;;;5006283;28;20071;-84
2023/12/17 01:30:17;;;;;;;20.35;11.95;;;;;;;;;;4997198;28;20605;-86
2023/12/17 01:32:42;;;;;;;18.95;11.55;;;;;;;;;;5012250;28;20121;-85
2023/12/17 01:35:08;;;;;;;15.77;10.30;;;;;;;;;;5005999;28;20037;-86
2023/12/17 01:37:34;;;;;;;17.63;11.65;;;;;;;;;;5006560;28;20033;-86
2023/12/17 01:39:59;;;;;;;19.30;12.48;;;;;;;;;;4990493;28;20059;-87
2023/12/17 01:42:25;;;;;;;17.92;11.50;;;;;;;;;;4981936;28;20123;-87
2023/12/17 01:44:50;;;;;;;19.02;12.20;;;;;;;;;;5027200;28;20037;-85
2023/12/17 01:47:16;;;;;;;19.30;12.18;;;;;;;;;;5016280;28;20059;-85
2023/12/17 01:49:41;;;;;;;18.90;11.90;;;;;;;;;;5025980;28;20510;-84
2023/12/17 01:52:07;;;;;;;19.00;11.82;;;;;;;;;;5026696;28;20037;-85
2023/12/17 01:54:35;;;;;;;18.48;11.43;;;;;;;;;;5017893;28;20078;-86
2023/12/17 01:57:00;;;;;;;20.08;12.13;;;;;;;;;;5025153;28;20462;-84
2023/12/17 01:59:31;;;;;;;20.48;11.57;;;;;;;;;;5009511;28;20069;-86
2023/12/17 02:01:57;;;;;;;21.02;12.40;;;;;;;;;;5009993;28;20820;-85
2023/12/17 02:04:25;;;;;;;19.00;11.75;;;;;;;;;;5008722;28;20044;-85
2023/12/17 02:06:50;;;;;;;19.13;11.82;;;;;;;;;;5010717;28;20144;-85
2023/12/17 02:09:16;;;;;;;19.00;12.18;;;;;;;;;;5003126;28;20066;-86
2023/12/17 02:11:43;;;;;;;17.60;11.93;;;;;;;;;;5003342;28;20029;-85
2023/12/17 02:14:09;;;;;;;19.50;11.35;;;;;;;;;;5009554;28;20057;-85
2023/12/17 02:16:35;;;;;;;21.23;12.52;;;;;;;;;;5008810;28;20057;-87
2023/12/17 02:19:01;;;;;;;19.55;12.45;;;;;;;;;;4992879;28;20041;-84
2023/12/17 02:21:26;;;;;;;18.08;12.50;;;;;;;;;;5018262;28;20044;-85
2023/12/17 02:23:53;;;;;;;22.33;12.50;;;;;;;;;;5008739;28;20030;-84
2023/12/17 02:26:21;;;;;;;18.70;12.40;;;;;;;;;;5008158;28;20064;-84
2023/12/17 02:28:47;;;;;;;19.67;12.10;;;;;;;;;;5009228;28;20581;-85
2023/12/17 02:31:15;;;;;;;21.77;12.30;;;;;;;;;;5001344;28;20025;-85
2023/12/17 02:33:41;;;;;;;17.75;11.90;;;;;;;;;;5024922;28;20121;-86
2023/12/17 02:36:06;;;;;;;19.70;12.15;;;;;;;;;;5009166;28;20112;-86
2023/12/17 02:38:32;;;;;;;20.75;12.70;;;;;;;;;;5015702;28;20137;-86
2023/12/17 02:40:57;;;;;;;19.08;12.23;;;;;;;;;;5009129;28;20032;-86
2023/12/17 02:45:58;;;;;;;18.02;12.35;;;;;;;;;;1269466;26;20182;-85
2023/12/17 02:48:26;;;;;;;20.00;12.02;;;;;;;;;;4956323;28;20124;-87
2023/12/17 02:50:52;;;;;;;19.20;12.68;;;;;;;;;;4948178;28;20089;-86
2023/12/17 02:53:17;;;;;;;19.75;13.02;;;;;;;;;;4965765;28;20128;-85
2023/12/17 02:55:43;;;;;;;20.02;12.80;;;;;;;;;;4966561;28;20037;-83
2023/12/17 02:58:08;;;;;;;17.38;11.98;;;;;;;;;;4978284;28;20038;-84
2023/12/17 03:00:33;;;;;;;18.00;11.70;;;;;;;;;;4960911;28;20037;-85
2023/12/17 03:02:59;;;;;;;20.25;11.80;;;;;;;;;;4969611;28;20045;-84
2023/12/17 03:05:25;;;;;;;18.67;12.15;;;;;;;;;;4961903;28;20168;-87
2023/12/17 03:07:54;;;;;;;18.75;12.68;;;;;;;;;;4960653;28;21356;-86
2023/12/17 03:10:19;;;;;;;18.00;11.63;;;;;;;;;;4987681;28;20045;-86
2023/12/17 03:12:44;;;;;;;17.70;12.18;;;;;;;;;;4971010;28;20179;-87
2023/12/17 03:15:10;;;;;;;19.25;12.30;;;;;;;;;;4961620;28;20404;-84
2023/12/17 03:17:35;;;;;;;17.25;11.82;;;;;;;;;;4958030;28;20050;-85
2023/12/17 03:20:04;;;;;;;18.33;11.30;;;;;;;;;;4961922;28;20662;-84
2023/12/17 03:22:30;;;;;;;19.25;11.85;;;;;;;;;;4975546;28;20039;-86
2023/12/17 03:25:05;;;;;;;17.42;11.65;;;;;;;;;;4965971;28;20038;-85
2023/12/17 03:27:30;;;;;;;19.83;11.82;;;;;;;;;;4982194;28;20089;-85
2023/12/17 03:29:56;;;;;;;17.95;12.30;;;;;;;;;;4968336;28;20058;-86
2023/12/17 03:32:21;;;;;;;19.85;11.93;;;;;;;;;;4965932;28;20030;-84
2023/12/17 03:34:47;;;;;;;19.30;12.52;;;;;;;;;;4969198;28;20038;-85
2023/12/17 03:37:12;;;;;;;18.83;12.05;;;;;;;;;;4959186;28;20039;-86
2023/12/17 03:39:38;;;;;;;21.52;12.15;;;;;;;;;;4963116;28;20056;-86
2023/12/17 03:42:03;;;;;;;18.70;11.65;;;;;;;;;;4964162;28;20120;-85
2023/12/17 03:44:33;;;;;;;18.17;11.82;;;;;;;;;;4951308;28;20110;-86
2023/12/17 03:46:58;;;;;;;19.00;12.50;;;;;;;;;;4951697;28;20046;-85
2023/12/17 03:49:24;;;;;;;18.23;11.13;;;;;;;;;;4941522;28;20034;-85
2023/12/17 03:51:49;;;;;;;18.48;11.43;;;;;;;;;;4950479;28;20452;-87
2023/12/17 03:54:17;;;;;;;17.98;11.57;;;;;;;;;;4965596;28;20026;-84
2023/12/17 03:56:46;;;;;;;18.48;11.70;;;;;;;;;;4941224;28;20212;-86
2023/12/17 03:59:20;;;;;;;20.88;12.18;;;;;;;;;;4983301;28;20111;-85
2023/12/17 04:01:46;;;;;;;18.02;11.68;;;;;;;;;;4986728;28;20116;-87
2023/12/17 04:04:13;;;;;;;16.90;11.63;;;;;;;;;;4977929;28;20129;-85
2023/12/17 04:06:41;;;;;;;21.30;12.40;;;;;;;;;;4982738;28;20057;-85
2023/12/17 04:09:06;;;;;;;17.80;11.82;;;;;;;;;;4979738;28;20034;-85
2023/12/17 04:11:32;;;;;;;18.25;11.85;;;;;;;;;;4974669;28;20037;-85
2023/12/17 04:13:57;;;;;;;17.27;12.00;;;;;;;;;;4982804;28;20112;-84
2023/12/17 04:16:23;;;;;;;17.38;11.60;;;;;;;;;;4987354;28;20034;-85
2023/12/17 04:18:49;;;;;;;19.35;12.70;;;;;;;;;;5002966;28;20026;-85
2023/12/17 04:21:20;;;;;;;19.52;12.13;;;;;;;;;;4995810;28;20049;-84
2023/12/17 04:23:45;;;;;;;18.58;11.13;;;;;;;;;;4982845;28;20450;-84
2023/12/17 04:26:11;;;;;;;18.02;12.32;;;;;;;;;;4991105;28;20046;-84
2023/12/17 04:28:37;;;;;;;17.08;11.13;;;;;;;;;;4969554;28;20395;-86
2023/12/17 04:31:02;;;;;;;17.33;11.88;;;;;;;;;;4997514;28;20120;-85
2023/12/17 04:33:27;;;;;;;17.42;11.40;;;;;;;;;;4983179;28;20072;-86
2023/12/17 04:35:53;;;;;;;18.48;12.60;;;;;;;;;;4988328;28;20038;-86
2023/12/17 04:38:18;;;;;;;19.42;12.40;;;;;;;;;;4979854;28;20419;-85
2023/12/17 04:40:46;;;;;;;17.65;10.70;;;;;;;;;;4997003;28;20036;-84
2023/12/17 04:43:11;;;;;;;18.88;11.85;;;;;;;;;;4965764;28;20094;-85
2023/12/17 04:45:57;;;;;;;16.27;10.40;;;;;;;;;;4982800;28;20049;-85
2023/12/17 04:48:23;;;;;;;18.60;10.68;;;;;;;;;;4900206;29;20154;-85
2023/12/17 04:50:48;;;;;;;18.33;11.30;;;;;;;;;;4916547;29;20039;-85
2023/12/17 04:53:14;;;;;;;19.20;11.25;;;;;;;;;;4892685;29;20040;-87
2023/12/17 04:55:39;;;;;;;18.00;11.43;;;;;;;;;;4908457;29;20050;-86
2023/12/17 04:58:04;;;;;;;16.55;10.63;;;;;;;;;;4905890;29;20521;-86
2023/12/17 05:00:30;;;;;;;14.60;9.77;;;;;;;;;;4908249;29;20516;-86
2023/12/17 05:02:55;;;;;;;17.48;10.55;;;;;;;;;;4917679;29;20395;-85
2023/12/17 05:05:23;;;;;;;16.23;10.38;;;;;;;;;;4885884;29;20145;-86
2023/12/17 05:07:48;;;;;;;15.48;10.43;;;;;;;;;;4883480;29;20043;-85
2023/12/17 05:10:14;;;;;;;18.15;10.40;;;;;;;;;;4890760;29;20730;-86
2023/12/17 05:12:39;;;;;;;16.73;9.38;;;;;;;;;;4900587;29;20095;-86
2023/12/17 05:15:07;;;;;;;17.45;10.93;;;;;;;;;;4916442;29;20042;-85
2023/12/17 05:17:33;;;;;;;18.92;10.23;;;;;;;;;;4899949;29;20044;-85
2023/12/17 05:19:58;;;;;;;17.85;10.73;;;;;;;;;;4920778;29;20058;-84
2023/12/17 05:22:24;;;;;;;16.40;10.18;;;;;;;;;;4911349;29;20046;-84
2023/12/17 05:24:49;;;;;;;17.02;10.18;;;;;;;;;;4921490;28;20034;-85
2023/12/17 05:27:14;;;;;;;18.05;10.38;;;;;;;;;;4987303;28;20037;-85
2023/12/17 05:29:40;;;;;;;15.73;10.35;;;;;;;;;;4988647;28;20029;-86
2023/12/17 05:32:06;;;;;;;16.92;10.48;;;;;;;;;;4978525;28;20502;-85
2023/12/17 05:34:34;;;;;;;16.88;10.25;;;;;;;;;;4993277;28;20045;-84
2023/12/17 05:37:00;;;;;;;18.33;10.23;;;;;;;;;;4990918;28;20026;-85
2023/12/17 05:39:27;;;;;;;15.85;9.90;;;;;;;;;;4976112;28;20045;-85
2023/12/17 05:41:53;;;;;;;;;;;;;;;;;;4979638;28;20085;-85
2023/12/17 05:44:18;;;;;;;18.80;10.15;;;;;;;;;;4973791;28;19921;-85
2023/12/17 05:46:44;;;;;;;15.45;10.23;;;;;;;;;;4990416;28;20041;-86
2023/12/17 05:49:10;;;;;;;17.30;10.23;;;;;;;;;;4984949;28;20026;-84
2023/12/17 05:51:35;;;;;;;16.55;10.95;;;;;;;;;;4980162;28;20419;-84
2023/12/17 05:54:00;;;;;;;18.38;10.98;;;;;;;;;;4999225;28;20033;-85
2023/12/17 05:56:26;;;;;;;15.80;10.27;;;;;;;;;;4977661;28;20060;-84
2023/12/17 05:58:51;;;;;;;15.40;10.05;;;;;;;;;;4981921;28;20037;-85
2023/12/17 06:01:27;;;;;;;17.15;10.98;;;;;;;;;;4980363;28;20038;-84
2023/12/17 06:03:53;;;;;;;17.90;9.82;;;;;;;;;;4978645;28;20498;-85
2023/12/17 06:06:26;;;;;;;16.08;10.20;;;;;;;;;;5002363;28;20034;-84
2023/12/17 06:08:52;;;;;;;14.88;9.77;;;;;;;;;;5002416;28;20721;-85
2023/12/17 06:11:17;;;;;;;15.98;10.20;;;;;;;;;;4981107;28;20097;-83
2023/12/17 06:13:43;;;;;;;14.98;10.07;;;;;;;;;;5000720;28;20037;-84
2023/12/17 06:16:09;;;;;;;14.70;10.30;;;;;;;;;;4980812;28;20562;-83
2023/12/17 06:18:35;;;;;;;16.13;10.10;;;;;;;;;;4978064;28;20034;-84
2023/12/17 06:21:01;;;;;;;15.50;10.65;;;;;;;;;;4995386;28;20934;-85
2023/12/17 06:23:27;;;;;;;15.90;10.23;;;;;;;;;;4998674;28;20045;-84
2023/12/17 06:25:57;;;;;;;15.52;9.82;;;;;;;;;;4995989;28;20038;-85
2023/12/17 06:28:23;;;;;;;16.13;10.07;;;;;;;;;;4981315;28;20046;-84
2023/12/17 06:30:49;;;;;;;14.65;9.60;;;;;;;;;;4984950;28;20022;-83
2023/12/17 06:33:14;;;;;;;15.32;9.38;;;;;;;;;;4996111;28;20030;-85
2023/12/17 06:35:40;;;;;;;14.75;9.60;;;;;;;;;;4976207;28;20049;-85
2023/12/17 06:38:06;;;;;;;16.20;9.88;;;;;;;;;;4974293;28;20044;-85
2023/12/17 06:40:31;;;;;;;14.38;9.70;;;;;;;;;;4998800;28;20537;-86
2023/12/17 06:42:57;;;;;;;15.50;9.38;;;;;;;;;;4986383;28;20037;-84
2023/12/17 06:45:23;;;;;;;13.32;9.10;;;;;;;;;;4987478;28;20068;-85
2023/12/17 06:47:48;;;;;;;15.70;9.65;;;;;;;;;;4983257;28;20092;-86
2023/12/17 06:50:14;;;;;;;13.20;8.55;;;;;;;;;;4957758;28;20046;-85
2023/12/17 06:52:39;;;;;;;11.77;8.25;;;;;;;;;;4972971;28;20153;-84
2023/12/17 06:55:06;;;;;;;14.57;8.80;;;;;;;;;;4984703;28;20117;-85
2023/12/17 06:57:31;;;;;;;14.75;9.07;;;;;;;;;;4961687;28;20524;-85
2023/12/17 06:59:57;;;;;;;13.63;8.85;;;;;;;;;;4985627;28;20038;-86
2023/12/17 07:02:22;;;;;;;13.65;9.05;;;;;;;;;;4972544;28;20064;-84
2023/12/17 07:04:48;;;;;;;14.18;8.70;;;;;;;;;;4984039;28;20038;-85
2023/12/17 07:07:13;;;;;;;14.38;9.23;;;;;;;;;;4970871;28;20045;-86
2023/12/17 07:09:39;;;;;;;13.73;8.57;;;;;;;;;;4983498;28;20461;-87
2023/12/17 07:12:04;;;;;;;11.60;8.45;;;;;;;;;;4995026;28;20061;-85
2023/12/17 07:14:30;;;;;;;12.15;7.82;;;;;;;;;;4981304;28;20528;-85
2023/12/17 07:16:55;;;;;;;12.55;8.77;;;;;;;;;;4989603;28;20040;-86
2023/12/17 07:19:21;;;;;;;12.32;8.18;;;;;;;;;;5000393;28;20041;-86
2023/12/17 07:21:46;;;;;;;13.23;8.38;;;;;;;;;;4982619;28;20033;-86
2023/12/17 07:24:12;;;;;;;14.25;8.43;;;;;;;;;;4989366;28;20045;-84
2023/12/17 07:26:37;;;;;;;11.48;7.45;;;;;;;;;;4994807;28;20125;-85
2023/12/17 07:29:02;;;;;;;14.55;8.40;;;;;;;;;;4968377;28;20033;-85
2023/12/17 07:31:31;;;;;;;12.30;8.07;;;;;;;;;;4993673;28;20041;-85
2023/12/17 07:34:01;;;;;;;10.43;6.97;;;;;;;;;;4972461;28;20041;-85
2023/12/17 07:36:29;;;;;;;11.38;7.22;;;;;;;;;;4979385;28;20044;-86
2023/12/17 07:38:55;;;;;;;11.52;7.50;;;;;;;;;;4992976;28;20044;-85
2023/12/17 07:41:23;;;;;;;10.07;7.25;;;;;;;;;;4984456;28;20034;-85
2023/12/17 07:43:49;;;;;;;10.55;7.05;;;;;;;;;;4986905;28;20395;-84
2023/12/17 07:46:14;;;;;;;10.65;7.25;;;;;;;;;;4963794;28;20050;-86
2023/12/17 07:48:40;;;;;;;11.75;7.10;;;;;;;;;;4967913;28;20530;-85
2023/12/17 07:51:28;;;;;;;11.73;7.55;;;;;;;;;;4984677;28;20603;-85
2023/12/17 07:53:54;;;;;;;10.90;7.40;;;;;;;;;;4992995;28;20644;-85
2023/12/17 07:56:39;;;;;;;10.32;6.88;;;;;;;;;;4977053;28;20030;-86
2023/12/17 07:59:05;;;;;;;12.25;7.15;;;;;;;;;;4982394;28;20435;-85
2023/12/17 08:01:42;;;;;;;12.45;7.13;;;;;;;;;;4991516;28;20045;-85
2023/12/17 08:04:09;;;;;;;;;;;;;;;;;;4971854;28;20038;-85
2023/12/17 08:06:37;;;;;;;10.00;7.10;;;;;;;;;;4985139;28;19914;-86
2023/12/17 08:09:03;;;;;;;11.68;7.10;;;;;;;;;;4970651;28;20065;-86
2023/12/17 08:11:31;;;;;;;10.07;6.88;;;;;;;;;;4973572;28;20090;-83
2023/12/17 08:13:57;;;;;;;10.35;7.05;;;;;;;;;;4966537;28;20043;-86
2023/12/17 08:16:22;;;;;;;9.95;6.60;;;;;;;;;;4974839;28;20857;-83
2023/12/17 08:18:47;;;;;;;10.48;6.93;;;;;;;;;;4978369;28;20041;-84
2023/12/17 08:21:15;;;;;;;10.57;6.90;;;;;;;;;;4977312;28;20109;-85
2023/12/17 08:23:46;;;;;;;11.40;6.57;;;;;;;;;;4991756;28;20038;-84
2023/12/17 08:26:12;;;;;;;10.25;6.95;;;;;;;;;;4985248;28;20050;-83
2023/12/17 08:28:37;;;;;;;11.30;7.00;;;;;;;;;;4977053;28;20061;-85
2023/12/17 08:31:47;;;;;;;9.35;6.63;;;;;;;;;;4990152;28;20085;-86
2023/12/17 08:34:12;;;;;;;9.30;6.35;;;;;;;;;;5003867;28;20178;-86
2023/12/17 08:36:43;;;;;;;8.88;6.30;;;;;;;;;;4983096;28;20065;-85
2023/12/17 08:39:29;;;;;;;9.32;6.22;;;;;;;;;;4981529;28;20488;-85
2023/12/17 08:41:57;;;;;;;9.05;5.95;;;;;;;;;;4973965;28;20068;-85
2023/12/17 08:45:04;;;;;;;9.35;6.20;;;;;;;;;;4963580;28;20042;-86
2023/12/17 08:47:32;;;;;;;9.75;6.20;;;;;;;;;;4990001;28;20038;-87
2023/12/17 08:49:59;;;;;;;9.60;5.85;;;;;;;;;;4962473;28;20400;-86
2023/12/17 08:52:26;;;;;;;9.52;6.10;;;;;;;;;;5000252;28;20037;-87
2023/12/17 08:54:52;;;;;;;9.00;5.50;;;;;;;;;;4986172;28;20068;-87
2023/12/17 08:57:29;;;;;;;9.93;5.82;;;;;;;;;;4987654;28;20049;-87
2023/12/17 08:59:58;;;;;;;8.38;5.88;;;;;;;;;;4994493;28;20041;-88
2023/12/17 09:02:32;;;;;;;9.07;6.40;;;;;;;;;;4979035;28;20044;-88
2023/12/17 09:04:57;;;;;;;8.45;5.75;;;;;;;;;;4992087;28;20121;-85
2023/12/17 09:07:37;;;;;;;7.68;5.55;;;;;;;;;;4981324;28;20169;-89
2023/12/17 09:10:03;;;;;;;8.38;5.50;;;;;;;;;;4954330;28;20034;-86
2023/12/17 09:12:28;;;;;;;7.88;5.53;;;;;;;;;;4961609;28;20041;-89
2023/12/17 09:14:54;;;;;;;8.02;4.97;;;;;;;;;;4995123;28;20141;-88
2023/12/17 09:17:19;;;;;;;7.97;5.50;;;;;;;;;;4973777;28;20373;-90
2023/12/17 09:19:44;;;;;;;7.22;5.00;;;;;;;;;;4975826;28;20049;-89
2023/12/17 09:22:10;;;;;;;7.30;5.28;;;;;;;;;;4973813;28;20057;-88
2023/12/17 09:24:35;;;;;;;7.03;5.03;;;;;;;;;;4960075;28;20046;-88
2023/12/17 09:27:03;;;;;;;7.93;5.57;;;;;;;;;;4982559;28;20046;-89
2023/12/17 09:29:39;;;;;;;7.35;5.25;;;;;;;;;;4977035;28;20038;-88
2023/12/17 09:32:04;;;;;;;7.40;5.20;;;;;;;;;;4993491;28;20038;-89
2023/12/17 09:34:37;;;;;;;8.48;5.03;;;;;;;;;;4988613;28;20053;-88
2023/12/17 09:37:03;;;;;;;7.00;5.00;;;;;;;;;;4973412;28;20038;-83
2023/12/17 09:39:28;;;;;;;7.05;4.63;;;;;;;;;;4975362;28;20042;-84
2023/12/17 09:41:54;;;;;;;7.38;4.90;;;;;;;;;;4986291;28;20117;-84
2023/12/17 09:44:26;;;;;;;7.22;5.03;;;;;;;;;;4997033;28;20068;-85
2023/12/17 09:46:51;;;;;;;6.30;4.65;;;;;;;;;;4968384;28;20462;-86
2023/12/17 09:49:17;;;;;;;7.40;4.93;;;;;;;;;;4979535;28;20093;-85
2023/12/17 09:51:46;;;;;;;15.27;4.72;;;;;;;;;;4990350;28;20042;-84
2023/12/17 09:54:12;;;;;;;6.50;4.50;;;;;;;;;;4983853;28;20092;-88
2023/12/17 09:56:47;;;;;;;6.95;4.78;;;;;;;;;;4964760;28;20042;-91
2023/12/17 09:59:15;;;;;;;7.88;5.03;;;;;;;;;;4952508;28;20093;-89
2023/12/17 10:01:41;;;;;;;6.90;4.60;;;;;;;;;;4975420;28;20140;-90
2023/12/17 10:04:07;;;;;;;6.68;4.38;;;;;;;;;;4986187;28;20455;-90
2023/12/17 10:06:44;;;;;;;8.45;4.93;;;;;;;;;;4995835;28;20038;-88
2023/12/17 10:09:09;;;;;;;6.85;4.72;;;;;;;;;;4989838;28;20396;-89
2023/12/17 10:11:36;;;;;;;6.90;4.80;;;;;;;;;;4988084;28;20034;-90
2023/12/17 10:14:04;;;;;;;7.30;5.00;;;;;;;;;;4992825;28;20038;-90
2023/12/17 10:16:32;;;;;;;6.90;4.72;;;;;;;;;;4981307;28;20048;-90
2023/12/17 10:18:57;;;;;;;7.97;5.10;;;;;;;;;;4987507;28;20041;-88
2023/12/17 10:21:22;;;;;;;7.78;5.25;;;;;;;;;;4973572;28;20474;-87
2023/12/17 10:23:54;;;;;;;7.38;4.90;;;;;;;;;;4986711;28;20050;-88
2023/12/17 10:26:20;;;;;;;7.75;5.00;;;;;;;;;;4980289;28;20961;-89
2023/12/17 10:28:46;;;;;;;7.93;5.15;;;;;;;;;;4973398;28;20033;-89
2023/12/17 10:31:17;;;;;;;6.97;4.75;;;;;;;;;;4995361;28;20040;-89
2023/12/17 10:33:51;;;;;;;7.97;4.75;;;;;;;;;;4977228;28;20120;-90
2023/12/17 10:36:17;;;;;;;6.53;4.70;;;;;;;;;;4987204;28;20044;-88
2023/12/17 10:38:42;;;;;;;7.72;5.22;;;;;;;;;;4980813;28;20030;-89
2023/12/17 10:41:09;;;;;;;8.82;5.20;;;;;;;;;;5011888;28;20037;-90
2023/12/17 10:43:35;;;;;;;8.38;5.22;;;;;;;;;;4979835;28;20037;-89
2023/12/17 10:46:01;;;;;;;6.97;4.75;;;;;;;;;;4968854;28;20507;-79
2023/12/17 10:48:29;;;;;;;7.22;5.07;;;;;;;;;;4979054;28;20046;-79
2023/12/17 10:50:56;;;;;;;7.75;5.20;;;;;;;;;;4989930;28;20604;-80
2023/12/17 10:53:21;;;;;;;6.57;4.60;;;;;;;;;;5013483;28;20038;-79
2023/12/17 10:55:47;;;;;;;11.70;6.57;;;;;;;;;;4993739;28;20786;-80
2023/12/17 10:58:15;;;;;;;7.25;5.25;;;;;;;;;;4997075;28;20042;-80
2023/12/17 11:00:41;;;;;;;7.95;5.10;;;;;;;;;;4995646;28;20325;-80
2023/12/17 11:03:13;;;;;;;8.65;5.05;;;;;;;;;;4979119;28;20060;-79
2023/12/17 11:05:59;;;;;;;7.35;4.82;;;;;;;;;;5005442;28;20152;-80
2023/12/17 11:08:26;;;;;;;7.55;5.25;;;;;;;;;;4975696;28;20129;-84
2023/12/17 11:10:52;;;;;;;7.63;5.27;;;;;;;;;;4987758;28;20533;-86
2023/12/17 11:13:23;;;;;;;6.43;4.35;;;;;;;;;;4980815;28;20414;-84
2023/12/17 11:15:48;;;;;;;7.32;4.93;;;;;;;;;;4989875;28;20034;-88
2023/12/17 11:18:15;;;;;;;8.05;5.03;;;;;;;;;;4989856;28;20048;-88
2023/12/17 11:20:41;;;;;;;9.48;5.22;;;;;;;;;;4956080;28;20396;-86
2023/12/17 11:23:06;;;;;;;7.78;4.90;;;;;;;;;;4970985;28;20029;-87
2023/12/17 11:25:39;;;;;;;8.20;4.53;;;;;;;;;;4962235;28;20607;-88
2023/12/17 11:28:07;;;;;;;7.60;4.95;;;;;;;;;;4981955;28;20073;-89
2023/12/17 11:30:34;;;;;;;5.82;4.10;;;;;;;;;;4997843;28;20033;-89
2023/12/17 11:33:01;;;;;;;7.28;4.47;;;;;;;;;;4970353;28;20059;-89
2023/12/17 11:35:32;;;;;;;6.45;4.70;;;;;;;;;;4971981;28;20077;-88
2023/12/17 11:38:20;;;;;;;7.20;4.90;;;;;;;;;;4981415;28;20025;-87
2023/12/17 11:40:54;;;;;;;;;;;;;;;;;;4958551;28;20042;-86
2023/12/17 11:43:25;;;;;;;7.43;4.10;;;;;;;;;;4981512;28;19917;-86
2023/12/17 11:45:54;;;;;;;6.38;4.70;;;;;;;;;;4988291;28;20129;-86
2023/12/17 11:48:20;;;;;;;7.40;4.80;;;;;;;;;;4975888;28;20049;-87
2023/12/17 11:51:02;;;;;;;6.65;4.50;;;;;;;;;;4997249;28;20396;-91
2023/12/17 11:53:30;;;;;;;6.53;4.60;;;;;;;;;;4970798;28;20562;-90
2023/12/17 11:55:59;;;;;;;6.57;4.50;;;;;;;;;;4988660;28;20105;-88
2023/12/17 11:58:32;;;;;;;7.68;4.93;;;;;;;;;;4984329;28;20145;-87
2023/12/17 12:01:08;;;;;;;7.78;5.07;;;;;;;;;;4987103;28;20038;-89
2023/12/17 12:03:37;;;;;;;6.07;4.20;;;;;;;;;;4994180;28;20049;-87
2023/12/17 12:06:27;;;;;;;6.47;4.50;;;;;;;;;;4976734;28;20062;-85
2023/12/17 12:08:53;;;;;;;7.18;4.72;;;;;;;;;;4927120;29;20145;-89
2023/12/17 12:11:43;;;;;;;6.30;4.60;;;;;;;;;;4927969;29;20506;-90
2023/12/17 12:14:09;;;;;;;6.75;4.20;;;;;;;;;;4911297;29;20032;-90
2023/12/17 12:16:52;;;;;;;6.30;4.40;;;;;;;;;;4928410;29;20039;-89
2023/12/17 12:19:18;;;;;;;7.07;4.47;;;;;;;;;;4929153;29;21088;-90
2023/12/17 12:21:43;;;;;;;7.45;4.32;;;;;;;;;;4912430;29;21021;-88
2023/12/17 12:24:10;;;;;;;6.43;3.95;;;;;;;;;;4927887;29;20086;-89
2023/12/17 12:26:36;;;;;;;6.72;4.40;;;;;;;;;;4901619;29;20210;-90
2023/12/17 12:29:06;;;;;;;6.53;4.40;;;;;;;;;;4927153;29;20067;-89
2023/12/17 12:31:32;;;;;;;6.53;4.60;;;;;;;;;;4927271;29;20051;-89
2023/12/17 12:34:02;;;;;;;5.55;3.90;;;;;;;;;;4928528;29;20037;-87
2023/12/17 12:36:52;;;;;;;5.68;3.65;;;;;;;;;;4905222;29;20063;-89
2023/12/17 12:39:28;;;;;;;5.93;3.80;;;;;;;;;;4932759;29;20448;-85
2023/12/17 12:41:54;;;;;;;5.80;3.95;;;;;;;;;;4926424;29;20043;-88
2023/12/17 12:44:19;;;;;;;6.47;4.20;;;;;;;;;;4916055;29;20130;-89
2023/12/17 12:46:51;;;;;;;5.75;3.80;;;;;;;;;;4967044;28;20045;-92
2023/12/17 12:49:24;;;;;;;6.28;4.28;;;;;;;;;;4978006;28;20071;-88
2023/12/17 12:51:49;;;;;;;5.70;3.78;;;;;;;;;;4966319;28;21311;-89
2023/12/17 12:54:15;;;;;;;6.65;4.22;;;;;;;;;;4983441;28;20038;-89
2023/12/17 12:56:42;;;;;;;6.28;4.00;;;;;;;;;;4975648;28;20057;-89
2023/12/17 12:59:07;;;;;;;6.35;4.25;;;;;;;;;;4972692;28;20076;-87
2023/12/17 13:01:38;;;;;;;6.32;3.78;;;;;;;;;;4972572;28;20893;-87
2023/12/17 13:04:03;;;;;;;5.93;4.00;;;;;;;;;;4984497;28;20042;-90
2023/12/17 13:06:32;;;;;;;6.38;3.90;;;;;;;;;;4963754;28;20040;-90
2023/12/17 13:08:57;;;;;;;5.75;4.03;;;;;;;;;;4994978;28;20034;-87
2023/12/17 13:11:23;;;;;;;5.55;3.85;;;;;;;;;;4991168;28;20042;-88
2023/12/17 13:13:48;;;;;;;6.80;4.15;;;;;;;;;;4979180;28;20452;-89
2023/12/17 13:16:14;;;;;;;6.35;4.20;;;;;;;;;;4983226;28;20442;-87
2023/12/17 13:18:39;;;;;;;6.72;3.67;;;;;;;;;;4981770;28;20037;-90
2023/12/17 13:21:05;;;;;;;8.13;4.00;;;;;;;;;;4983594;28;20053;-90
2023/12/17 13:23:33;;;;;;;6.72;4.03;;;;;;;;;;4977782;28;20303;-87
2023/12/17 13:26:02;;;;;;;5.45;3.47;;;;;;;;;;5006522;28;20387;-89
2023/12/17 13:28:30;;;;;;;5.63;3.83;;;;;;;;;;4984985;28;20065;-88
2023/12/17 13:30:56;;;;;;;6.90;3.83;;;;;;;;;;4992760;28;20030;-88
2023/12/17 13:33:21;;;;;;;7.68;3.95;;;;;;;;;;4993089;28;20039;-91
2023/12/17 13:35:49;;;;;;;5.72;3.70;;;;;;;;;;4974219;28;20551;-86
2023/12/17 13:38:15;;;;;;;5.60;3.70;;;;;;;;;;5001993;28;20033;-86
2023/12/17 13:40:40;;;;;;;5.97;3.83;;;;;;;;;;4995730;28;20034;-86
2023/12/17 13:43:07;;;;;;;6.90;4.00;;;;;;;;;;4985403;28;20065;-85
2023/12/17 13:45:33;;;;;;;6.53;3.58;;;;;;;;;;4993886;28;20046;-87
2023/12/17 13:47:58;;;;;;;5.75;3.45;;;;;;;;;;4993298;28;20039;-85
2023/12/17 13:50:24;;;;;;;5.68;3.40;;;;;;;;;;4993857;28;20214;-86
2023/12/17 13:53:04;;;;;;;7.22;3.85;;;;;;;;;;4991534;28;20044;-86
2023/12/17 13:55:30;;;;;;;7.85;3.80;;;;;;;;;;4994248;28;20141;-86
2023/12/17 13:57:56;;;;;;;5.93;3.50;;;;;;;;;;4974791;28;20121;-84
2023/12/17 14:00:21;;;;;;;6.00;3.75;;;;;;;;;;4996010;28;20034;-87
2023/12/17 14:02:48;;;;;;;7.10;3.60;;;;;;;;;;4976764;28;20589;-87
2023/12/17 14:05:13;;;;;;;6.10;3.50;;;;;;;;;;4986335;28;20466;-86
2023/12/17 14:07:42;;;;;;;6.82;3.10;;;;;;;;;;4971943;28;20070;-87
2023/12/17 14:10:10;;;;;;;7.30;3.60;;;;;;;;;;4976394;28;20034;-88
2023/12/17 14:12:40;;;;;;;5.63;3.40;;;;;;;;;;4965627;28;20049;-86
2023/12/17 14:15:08;;;;;;;6.68;3.00;;;;;;;;;;4980600;28;20439;-87
2023/12/17 14:17:33;;;;;;;6.68;3.33;;;;;;;;;;4982707;28;20132;-87
2023/12/17 14:19:59;;;;;;;6.22;3.40;;;;;;;;;;4987929;28;20129;-87
2023/12/17 14:22:27;;;;;;;6.97;3.30;;;;;;;;;;4990207;28;20133;-87
2023/12/17 14:24:52;;;;;;;;;;;;;;;;;;4970380;28;20492;-83
2023/12/17 14:27:18;;;;;;;6.95;3.80;;;;;;;;;;4987963;28;19949;-83
2023/12/17 14:29:43;;;;;;;6.40;3.65;;;;;;;;;;4982803;28;20114;-83
2023/12/17 14:32:09;;;;;;;6.25;3.72;;;;;;;;;;4979823;28;20125;-88
2023/12/17 14:34:43;;;;;;;7.07;3.88;;;;;;;;;;4957924;28;20049;-88
2023/12/17 14:37:09;;;;;;;7.47;3.72;;;;;;;;;;4977252;28;20033;-87